Leflore, OK (74942)

3:50 AM CDT on May 28, 2017 (GMT -0500)
Kerr | | Change Station
Active Advisory: Severe Thunderstorm Watch

Elev 449 ft 35.02 °N, 94.62 °W | Updated 15 minutes ago

Rain
Rain
74 °F
Feels Like 74 °F
N
7
Wind Variable Wind from WNW

Today
High -- | Low -- °F
--% Chance of Precip.
Yesterday
High -- | Low -- °F
Precip. -- in
Pressure 29.81 in
Visibility 10.0 miles
Clouds Scattered Clouds 3600 ft
Scattered Clouds 7000 ft
Mostly Cloudy 12000 ft
Dew Point 64 °F
Humidity 71%
Rainfall 0.01 in
Snow Depth Not available.
6:08 AM 8:26 PM
Waxing Crescent, 10% visible
METAR KRKR 280835Z AUTO 30006KT 10SM -VCTSRA SCT036 SCT070 BKN120 24/18 A2981 RMK AO2 LTG DSNT E THRU SW P0001 T02360180
Pressure 29.81 in
Visibility 10.0 miles
Clouds Scattered Clouds 3600 ft
Scattered Clouds 7000 ft
Mostly Cloudy 12000 ft
Dew Point 64 °F
Humidity 71%
Rainfall 0.01 in
Snow Depth Not available.
6:08 AM 8:26 PM
Waxing Crescent, 10% visible
METAR KRKR 280835Z AUTO 30006KT 10SM -VCTSRA SCT036 SCT070 BKN120 24/18 A2981 RMK AO2 LTG DSNT E THRU SW P0001 T02360180

Get Your Daily Forecast Email!

Thanks for signing up!

Be on the lookout for a verification email in your inbox.

You'll start receiving severe weather alerts in your inbox..

×

10-Day Weather Forecast

Almanac

Astronomy

May. 28, 2017 Rise Set
Actual Time
Civil Twilight
Nautical Twilight
Astronomical Twilight
Moon
Length of Visible Light
Length of Day
Tomorrow will be .
, % of the Moon is Illuminated

Today's Extremes

State Highs State Lows

Community

WunderPhotos

Category 6

Welcome to Category 6. This is the collective home for Weather Underground's featured writeups by Dr. Jeff Masters (right), Bob Henson (left), Chris Burt, and other regular contributors.

Nearby

Air Quality

  Air Quality AQ Index Pollutant
Not available.

Snow Depth

Station Depth Elevation

Earthquake Activity

City Distance Mag. Time & Date
Minimum magnitude displayed is 2.5.

Coastal Water Temperatures

Place Temperature

Stations

Nearby Weather Stations

Station Location Temp. Windchill Dew Point Humidity Wind Precip. Elev Updated Type
                   

Watches & Warnings

Severe Thunderstorm Watch
Issued: 3:43 AM CDT May. 28, 2017 – National Weather Service

Severe Thunderstorm Watch 289 remains in effect until 700 am CDT

OK
. Oklahoma counties included are

Choctaw Haskell Latimer
Le Flore McCurtain Pittsburg
Pushmataha Sequoyah